sensor_id;sensor_type;location;lat;lon;timestamp;temperature;humidity
11005;DHT22;5555;59.622;16.556;2023-10-19T00:00:39;1.90;99.90
11005;DHT22;5555;59.622;16.556;2023-10-19T00:03:06;1.90;99.90
11005;DHT22;5555;59.622;16.556;2023-10-19T00:05:33;1.90;99.90
11005;DHT22;5555;59.622;16.556;2023-10-19T00:08:00;1.90;99.90
11005;DHT22;5555;59.622;16.556;2023-10-19T00:10:31;1.90;99.90
11005;DHT22;5555;59.622;16.556;2023-10-19T00:13:03;1.90;99.90
11005;DHT22;5555;59.622;16.556;2023-10-19T00:15:43;1.90;99.90
11005;DHT22;5555;59.622;16.556;2023-10-19T00:18:19;1.90;99.90
11005;DHT22;5555;59.622;16.556;2023-10-19T00:20:53;1.80;99.90
11005;DHT22;5555;59.622;16.556;2023-10-19T00:23:25;1.80;99.90
11005;DHT22;5555;59.622;16.556;2023-10-19T00:26:02;1.80;99.90
11005;DHT22;5555;59.622;16.556;2023-10-19T00:28:34;1.70;99.90
11005;DHT22;5555;59.622;16.556;2023-10-19T00:31:01;1.70;99.90
11005;DHT22;5555;59.622;16.556;2023-10-19T00:33:33;1.70;99.90
11005;DHT22;5555;59.622;16.556;2023-10-19T00:36:00;1.70;99.90
11005;DHT22;5555;59.622;16.556;2023-10-19T00:38:32;1.70;99.90
11005;DHT22;5555;59.622;16.556;2023-10-19T00:41:00;1.70;99.90
11005;DHT22;5555;59.622;16.556;2023-10-19T00:43:41;1.80;99.90
11005;DHT22;5555;59.622;16.556;2023-10-19T00:46:11;1.80;99.90
11005;DHT22;5555;59.622;16.556;2023-10-19T00:49:01;1.90;99.90
11005;DHT22;5555;59.622;16.556;2023-10-19T00:51:29;1.90;99.90
11005;DHT22;5555;59.622;16.556;2023-10-19T00:53:58;2.00;99.90
11005;DHT22;5555;59.622;16.556;2023-10-19T00:56:25;2.00;99.90
11005;DHT22;5555;59.622;16.556;2023-10-19T00:58:54;2.00;99.90
11005;DHT22;5555;59.622;16.556;2023-10-19T01:01:28;2.10;99.90
11005;DHT22;5555;59.622;16.556;2023-10-19T01:03:54;2.10;99.90
11005;DHT22;5555;59.622;16.556;2023-10-19T01:06:25;2.20;99.90
11005;DHT22;5555;59.622;16.556;2023-10-19T01:08:52;2.20;99.90
11005;DHT22;5555;59.622;16.556;2023-10-19T01:11:18;2.20;99.90
11005;DHT22;5555;59.622;16.556;2023-10-19T01:13:47;2.20;99.90
11005;DHT22;5555;59.622;16.556;2023-10-19T01:16:17;2.20;99.90
11005;DHT22;5555;59.622;16.556;2023-10-19T01:18:48;2.20;99.90
11005;DHT22;5555;59.622;16.556;2023-10-19T01:21:13;2.20;99.90
11005;DHT22;5555;59.622;16.556;2023-10-19T01:23:44;2.20;99.90
11005;DHT22;5555;59.622;16.556;2023-10-19T01:26:10;2.20;99.90
11005;DHT22;5555;59.622;16.556;2023-10-19T01:28:38;2.30;99.90
11005;DHT22;5555;59.622;16.556;2023-10-19T01:31:17;2.30;99.90
11005;DHT22;5555;59.622;16.556;2023-10-19T01:33:56;2.30;99.90
11005;DHT22;5555;59.622;16.556;2023-10-19T01:36:23;2.30;99.90
11005;DHT22;5555;59.622;16.556;2023-10-19T01:38:50;2.40;99.90
11005;DHT22;5555;59.622;16.556;2023-10-19T01:41:19;2.40;99.90
11005;DHT22;5555;59.622;16.556;2023-10-19T01:43:47;2.40;99.90
11005;DHT22;5555;59.622;16.556;2023-10-19T01:46:15;2.40;99.90
11005;DHT22;5555;59.622;16.556;2023-10-19T01:48:52;2.40;99.90
11005;DHT22;5555;59.622;16.556;2023-10-19T01:51:25;2.40;99.90
11005;DHT22;5555;59.622;16.556;2023-10-19T01:53:52;2.40;99.90
11005;DHT22;5555;59.622;16.556;2023-10-19T01:56:18;2.40;99.90
11005;DHT22;5555;59.622;16.556;2023-10-19T01:58:46;2.40;99.90
11005;DHT22;5555;59.622;16.556;2023-10-19T02:01:17;2.40;99.90
11005;DHT22;5555;59.622;16.556;2023-10-19T02:03:55;2.40;99.90
11005;DHT22;5555;59.622;16.556;2023-10-19T02:06:24;2.40;99.90
11005;DHT22;5555;59.622;16.556;2023-10-19T02:09:09;2.40;99.90
11005;DHT22;5555;59.622;16.556;2023-10-19T02:11:50;2.40;99.90
11005;DHT22;5555;59.622;16.556;2023-10-19T02:14:19;2.30;99.90
11005;DHT22;5555;59.622;16.556;2023-10-19T02:16:46;2.30;99.90
11005;DHT22;5555;59.622;16.556;2023-10-19T02:19:13;2.20;99.90
11005;DHT22;5555;59.622;16.556;2023-10-19T02:21:39;2.10;99.90
11005;DHT22;5555;59.622;16.556;2023-10-19T02:24:09;2.10;99.90
11005;DHT22;5555;59.622;16.556;2023-10-19T02:26:37;2.00;99.90
11005;DHT22;5555;59.622;16.556;2023-10-19T02:29:04;2.00;99.90
11005;DHT22;5555;59.622;16.556;2023-10-19T02:31:34;2.00;99.90
11005;DHT22;5555;59.622;16.556;2023-10-19T02:33:59;2.10;99.90
11005;DHT22;5555;59.622;16.556;2023-10-19T02:36:26;2.10;99.90
11005;DHT22;5555;59.622;16.556;2023-10-19T02:39:03;2.20;99.90
11005;DHT22;5555;59.622;16.556;2023-10-19T02:41:33;2.20;99.90
11005;DHT22;5555;59.622;16.556;2023-10-19T02:44:01;2.30;99.90
11005;DHT22;5555;59.622;16.556;2023-10-19T02:46:32;2.30;99.90
11005;DHT22;5555;59.622;16.556;2023-10-19T02:49:02;2.40;99.90
11005;DHT22;5555;59.622;16.556;2023-10-19T02:51:31;2.40;99.90
11005;DHT22;5555;59.622;16.556;2023-10-19T02:53:57;2.40;99.90
11005;DHT22;5555;59.622;16.556;2023-10-19T02:56:26;2.40;99.90
11005;DHT22;5555;59.622;16.556;2023-10-19T02:58:55;2.40;99.90
11005;DHT22;5555;59.622;16.556;2023-10-19T03:01:28;2.40;99.90
11005;DHT22;5555;59.622;16.556;2023-10-19T03:03:57;2.40;99.90
11005;DHT22;5555;59.622;16.556;2023-10-19T03:06:26;2.30;99.90
11005;DHT22;5555;59.622;16.556;2023-10-19T03:08:57;2.30;99.90
11005;DHT22;5555;59.622;16.556;2023-10-19T03:11:42;2.20;99.90
11005;DHT22;5555;59.622;16.556;2023-10-19T03:14:09;2.10;99.90
11005;DHT22;5555;59.622;16.556;2023-10-19T03:16:38;2.10;99.90
11005;DHT22;5555;59.622;16.556;2023-10-19T03:19:07;2.10;99.90
11005;DHT22;5555;59.622;16.556;2023-10-19T03:21:33;2.10;99.90
11005;DHT22;5555;59.622;16.556;2023-10-19T03:24:07;2.10;99.90
11005;DHT22;5555;59.622;16.556;2023-10-19T03:26:37;2.10;99.90
11005;DHT22;5555;59.622;16.556;2023-10-19T03:29:05;2.10;99.90
11005;DHT22;5555;59.622;16.556;2023-10-19T03:31:38;2.10;99.90
11005;DHT22;5555;59.622;16.556;2023-10-19T03:34:13;2.20;99.90
11005;DHT22;5555;59.622;16.556;2023-10-19T03:36:39;2.20;99.90
11005;DHT22;5555;59.622;16.556;2023-10-19T03:39:05;2.20;99.90
11005;DHT22;5555;59.622;16.556;2023-10-19T03:41:41;2.20;99.90
11005;DHT22;5555;59.622;16.556;2023-10-19T03:44:13;2.10;99.90
11005;DHT22;5555;59.622;16.556;2023-10-19T03:46:45;2.00;99.90
11005;DHT22;5555;59.622;16.556;2023-10-19T03:49:29;2.10;99.90
11005;DHT22;5555;59.622;16.556;2023-10-19T03:52:04;2.00;99.90
11005;DHT22;5555;59.622;16.556;2023-10-19T03:54:36;2.00;99.90
11005;DHT22;5555;59.622;16.556;2023-10-19T03:57:09;2.00;99.90
11005;DHT22;5555;59.622;16.556;2023-10-19T03:59:40;2.00;99.90
11005;DHT22;5555;59.622;16.556;2023-10-19T04:02:09;2.00;99.90
11005;DHT22;5555;59.622;16.556;2023-10-19T04:04:46;2.00;99.90
11005;DHT22;5555;59.622;16.556;2023-10-19T04:07:16;1.90;99.90
11005;DHT22;5555;59.622;16.556;2023-10-19T04:09:53;1.90;99.90
11005;DHT22;5555;59.622;16.556;2023-10-19T04:12:39;1.90;99.90
11005;DHT22;5555;59.622;16.556;2023-10-19T04:15:08;1.90;99.90
11005;DHT22;5555;59.622;16.556;2023-10-19T04:17:44;1.80;99.90
11005;DHT22;5555;59.622;16.556;2023-10-19T04:20:17;1.90;99.90
11005;DHT22;5555;59.622;16.556;2023-10-19T04:22:47;1.90;99.90
11005;DHT22;5555;59.622;16.556;2023-10-19T04:25:14;1.90;99.90
11005;DHT22;5555;59.622;16.556;2023-10-19T04:27:44;1.80;99.90
11005;DHT22;5555;59.622;16.556;2023-10-19T04:30:12;1.80;99.90
11005;DHT22;5555;59.622;16.556;2023-10-19T04:32:48;1.90;99.90
11005;DHT22;5555;59.622;16.556;2023-10-19T04:35:14;1.90;99.90
11005;DHT22;5555;59.622;16.556;2023-10-19T04:37:53;1.80;99.90
11005;DHT22;5555;59.622;16.556;2023-10-19T04:40:20;1.80;99.90
11005;DHT22;5555;59.622;16.556;2023-10-19T04:42:46;1.90;99.90
11005;DHT22;5555;59.622;16.556;2023-10-19T04:45:12;1.80;99.90
11005;DHT22;5555;59.622;16.556;2023-10-19T04:47:39;1.80;99.90
11005;DHT22;5555;59.622;16.556;2023-10-19T04:50:06;1.90;99.90
11005;DHT22;5555;59.622;16.556;2023-10-19T04:52:32;1.80;99.90
11005;DHT22;5555;59.622;16.556;2023-10-19T04:54:59;1.90;99.90
11005;DHT22;5555;59.622;16.556;2023-10-19T04:57:25;1.80;99.90
11005;DHT22;5555;59.622;16.556;2023-10-19T04:59:51;1.80;99.90
11005;DHT22;5555;59.622;16.556;2023-10-19T05:02:17;1.70;99.90
11005;DHT22;5555;59.622;16.556;2023-10-19T05:04:43;1.60;99.90
11005;DHT22;5555;59.622;16.556;2023-10-19T05:07:09;1.60;99.90
11005;DHT22;5555;59.622;16.556;2023-10-19T05:09:38;1.40;99.90
11005;DHT22;5555;59.622;16.556;2023-10-19T05:12:05;1.30;99.90
11005;DHT22;5555;59.622;16.556;2023-10-19T05:14:38;1.20;99.90
11005;DHT22;5555;59.622;16.556;2023-10-19T05:17:04;1.10;99.90
11005;DHT22;5555;59.622;16.556;2023-10-19T05:19:34;1.00;99.90
11005;DHT22;5555;59.622;16.556;2023-10-19T05:22:00;0.90;99.90
11005;DHT22;5555;59.622;16.556;2023-10-19T05:24:26;0.80;99.90
11005;DHT22;5555;59.622;16.556;2023-10-19T05:26:53;0.80;99.90
11005;DHT22;5555;59.622;16.556;2023-10-19T05:29:21;0.80;99.90
11005;DHT22;5555;59.622;16.556;2023-10-19T05:31:47;0.80;99.90
11005;DHT22;5555;59.622;16.556;2023-10-19T05:34:19;0.80;99.90
11005;DHT22;5555;59.622;16.556;2023-10-19T05:36:45;0.70;99.90
11005;DHT22;5555;59.622;16.556;2023-10-19T05:39:14;0.70;99.90
11005;DHT22;5555;59.622;16.556;2023-10-19T05:41:40;0.70;99.90
11005;DHT22;5555;59.622;16.556;2023-10-19T05:44:05;0.70;99.90
11005;DHT22;5555;59.622;16.556;2023-10-19T05:46:31;0.60;99.90
11005;DHT22;5555;59.622;16.556;2023-10-19T05:48:57;0.60;99.90
11005;DHT22;5555;59.622;16.556;2023-10-19T05:51:23;0.60;99.90
11005;DHT22;5555;59.622;16.556;2023-10-19T05:53:49;0.60;99.90
11005;DHT22;5555;59.622;16.556;2023-10-19T05:56:16;0.60;99.90
11005;DHT22;5555;59.622;16.556;2023-10-19T05:58:43;0.60;99.90
11005;DHT22;5555;59.622;16.556;2023-10-19T06:01:08;0.60;99.90
11005;DHT22;5555;59.622;16.556;2023-10-19T06:03:34;0.60;99.90
11005;DHT22;5555;59.622;16.556;2023-10-19T06:06:00;0.60;99.90
11005;DHT22;5555;59.622;16.556;2023-10-19T06:08:26;0.70;99.90
11005;DHT22;5555;59.622;16.556;2023-10-19T06:10:52;0.80;99.90
11005;DHT22;5555;59.622;16.556;2023-10-19T06:13:18;0.80;99.90
11005;DHT22;5555;59.622;16.556;2023-10-19T06:15:44;0.90;99.90
11005;DHT22;5555;59.622;16.556;2023-10-19T06:18:10;0.90;99.90
11005;DHT22;5555;59.622;16.556;2023-10-19T06:20:36;1.00;99.90
11005;DHT22;5555;59.622;16.556;2023-10-19T06:23:02;1.00;99.90
11005;DHT22;5555;59.622;16.556;2023-10-19T06:25:32;1.10;99.90
11005;DHT22;5555;59.622;16.556;2023-10-19T06:27:58;1.10;99.90
11005;DHT22;5555;59.622;16.556;2023-10-19T06:30:25;1.10;99.90
11005;DHT22;5555;59.622;16.556;2023-10-19T06:33:01;1.20;99.90
11005;DHT22;5555;59.622;16.556;2023-10-19T06:35:28;1.10;99.90
11005;DHT22;5555;59.622;16.556;2023-10-19T06:37:55;1.00;99.90
11005;DHT22;5555;59.622;16.556;2023-10-19T06:40:21;1.00;99.90
11005;DHT22;5555;59.622;16.556;2023-10-19T06:42:48;0.90;99.90
11005;DHT22;5555;59.622;16.556;2023-10-19T06:45:16;1.00;99.90
11005;DHT22;5555;59.622;16.556;2023-10-19T06:47:46;1.00;99.90
11005;DHT22;5555;59.622;16.556;2023-10-19T06:50:17;1.20;99.90
11005;DHT22;5555;59.622;16.556;2023-10-19T06:52:44;1.30;99.90
11005;DHT22;5555;59.622;16.556;2023-10-19T06:55:11;1.40;99.90
11005;DHT22;5555;59.622;16.556;2023-10-19T06:57:43;1.50;99.90
11005;DHT22;5555;59.622;16.556;2023-10-19T07:00:12;1.60;99.90
11005;DHT22;5555;59.622;16.556;2023-10-19T07:02:44;1.70;99.90
11005;DHT22;5555;59.622;16.556;2023-10-19T07:05:15;1.70;99.90
11005;DHT22;5555;59.622;16.556;2023-10-19T07:07:47;1.60;99.90
11005;DHT22;5555;59.622;16.556;2023-10-19T07:10:13;1.70;99.90
11005;DHT22;5555;59.622;16.556;2023-10-19T07:12:42;1.70;99.90
11005;DHT22;5555;59.622;16.556;2023-10-19T07:15:09;1.80;99.90
11005;DHT22;5555;59.622;16.556;2023-10-19T07:17:42;1.90;99.90
11005;DHT22;5555;59.622;16.556;2023-10-19T07:20:09;1.90;99.90
11005;DHT22;5555;59.622;16.556;2023-10-19T07:22:47;2.00;99.90
11005;DHT22;5555;59.622;16.556;2023-10-19T07:25:13;2.00;99.90
11005;DHT22;5555;59.622;16.556;2023-10-19T07:27:39;2.00;99.90
11005;DHT22;5555;59.622;16.556;2023-10-19T07:30:08;2.10;99.90
11005;DHT22;5555;59.622;16.556;2023-10-19T07:32:35;2.00;99.90
11005;DHT22;5555;59.622;16.556;2023-10-19T07:35:01;2.00;99.90
11005;DHT22;5555;59.622;16.556;2023-10-19T07:37:26;2.10;99.90
11005;DHT22;5555;59.622;16.556;2023-10-19T07:39:54;2.20;99.90
11005;DHT22;5555;59.622;16.556;2023-10-19T07:42:22;2.40;99.90
11005;DHT22;5555;59.622;16.556;2023-10-19T07:44:48;2.50;99.90
11005;DHT22;5555;59.622;16.556;2023-10-19T07:47:14;2.50;99.90
11005;DHT22;5555;59.622;16.556;2023-10-19T07:49:40;2.60;99.90
11005;DHT22;5555;59.622;16.556;2023-10-19T07:52:06;2.60;99.90
11005;DHT22;5555;59.622;16.556;2023-10-19T07:54:36;2.60;99.90
11005;DHT22;5555;59.622;16.556;2023-10-19T07:57:02;2.60;99.90
11005;DHT22;5555;59.622;16.556;2023-10-19T07:59:34;2.50;99.90
11005;DHT22;5555;59.622;16.556;2023-10-19T08:02:03;2.60;99.90
11005;DHT22;5555;59.622;16.556;2023-10-19T08:04:29;2.60;99.90
11005;DHT22;5555;59.622;16.556;2023-10-19T08:06:59;2.40;99.90
11005;DHT22;5555;59.622;16.556;2023-10-19T08:09:25;2.40;99.90
11005;DHT22;5555;59.622;16.556;2023-10-19T08:11:57;2.60;99.90
11005;DHT22;5555;59.622;16.556;2023-10-19T08:14:25;2.60;99.90
11005;DHT22;5555;59.622;16.556;2023-10-19T08:16:52;2.50;99.90
11005;DHT22;5555;59.622;16.556;2023-10-19T08:19:18;2.50;99.90
11005;DHT22;5555;59.622;16.556;2023-10-19T08:21:44;2.70;99.90
11005;DHT22;5555;59.622;16.556;2023-10-19T08:24:09;2.90;99.90
11005;DHT22;5555;59.622;16.556;2023-10-19T08:26:42;2.90;99.90
11005;DHT22;5555;59.622;16.556;2023-10-19T08:29:08;3.00;99.90
11005;DHT22;5555;59.622;16.556;2023-10-19T08:31:42;3.00;99.90
11005;DHT22;5555;59.622;16.556;2023-10-19T08:34:08;3.00;99.90
11005;DHT22;5555;59.622;16.556;2023-10-19T08:36:37;3.00;99.90
11005;DHT22;5555;59.622;16.556;2023-10-19T08:39:05;3.10;99.90
11005;DHT22;5555;59.622;16.556;2023-10-19T08:41:32;3.20;99.90
11005;DHT22;5555;59.622;16.556;2023-10-19T08:44:00;3.40;99.90
11005;DHT22;5555;59.622;16.556;2023-10-19T08:46:27;3.50;99.90
11005;DHT22;5555;59.622;16.556;2023-10-19T08:48:55;3.60;99.90
11005;DHT22;5555;59.622;16.556;2023-10-19T08:51:22;3.80;99.90
11005;DHT22;5555;59.622;16.556;2023-10-19T08:53:53;3.90;99.90
11005;DHT22;5555;59.622;16.556;2023-10-19T08:56:19;3.70;99.90
11005;DHT22;5555;59.622;16.556;2023-10-19T08:58:49;3.60;99.90
11005;DHT22;5555;59.622;16.556;2023-10-19T09:01:18;3.50;99.90
11005;DHT22;5555;59.622;16.556;2023-10-19T09:03:45;3.50;99.90
11005;DHT22;5555;59.622;16.556;2023-10-19T09:06:12;3.40;99.90
11005;DHT22;5555;59.622;16.556;2023-10-19T09:08:39;3.60;99.90
11005;DHT22;5555;59.622;16.556;2023-10-19T09:11:07;3.60;99.90
11005;DHT22;5555;59.622;16.556;2023-10-19T09:13:47;3.60;99.90
11005;DHT22;5555;59.622;16.556;2023-10-19T09:16:14;3.50;99.90
11005;DHT22;5555;59.622;16.556;2023-10-19T09:18:40;3.70;99.90
11005;DHT22;5555;59.622;16.556;2023-10-19T09:21:07;3.80;99.90
11005;DHT22;5555;59.622;16.556;2023-10-19T09:23:33;3.90;99.90
11005;DHT22;5555;59.622;16.556;2023-10-19T09:26:01;4.00;99.90
11005;DHT22;5555;59.622;16.556;2023-10-19T09:28:32;4.20;99.90
11005;DHT22;5555;59.622;16.556;2023-10-19T09:31:00;3.90;99.90
11005;DHT22;5555;59.622;16.556;2023-10-19T09:33:27;3.80;99.90
11005;DHT22;5555;59.622;16.556;2023-10-19T09:35:53;3.80;99.90
11005;DHT22;5555;59.622;16.556;2023-10-19T09:38:20;3.80;99.90
11005;DHT22;5555;59.622;16.556;2023-10-19T09:40:51;3.90;99.90
11005;DHT22;5555;59.622;16.556;2023-10-19T09:43:42;3.90;99.90
11005;DHT22;5555;59.622;16.556;2023-10-19T09:46:10;4.10;99.90
11005;DHT22;5555;59.622;16.556;2023-10-19T09:48:45;4.10;99.90
11005;DHT22;5555;59.622;16.556;2023-10-19T09:51:11;4.10;99.90
11005;DHT22;5555;59.622;16.556;2023-10-19T09:53:38;4.10;99.90
11005;DHT22;5555;59.622;16.556;2023-10-19T09:56:06;3.90;99.90
11005;DHT22;5555;59.622;16.556;2023-10-19T09:58:45;3.80;99.90
11005;DHT22;5555;59.622;16.556;2023-10-19T10:01:12;4.00;99.90
11005;DHT22;5555;59.622;16.556;2023-10-19T10:03:51;4.20;99.90
11005;DHT22;5555;59.622;16.556;2023-10-19T10:06:29;4.10;99.90
11005;DHT22;5555;59.622;16.556;2023-10-19T10:08:58;4.20;99.90
11005;DHT22;5555;59.622;16.556;2023-10-19T10:11:26;4.30;99.90
11005;DHT22;5555;59.622;16.556;2023-10-19T10:13:56;4.30;99.90
11005;DHT22;5555;59.622;16.556;2023-10-19T10:16:29;4.10;99.90
11005;DHT22;5555;59.622;16.556;2023-10-19T10:18:56;4.20;99.90
11005;DHT22;5555;59.622;16.556;2023-10-19T10:21:25;4.10;99.90
11005;DHT22;5555;59.622;16.556;2023-10-19T10:26:18;4.50;99.90
11005;DHT22;5555;59.622;16.556;2023-10-19T10:29:07;4.30;99.90
11005;DHT22;5555;59.622;16.556;2023-10-19T10:31:37;4.20;99.90
11005;DHT22;5555;59.622;16.556;2023-10-19T10:34:08;4.00;99.90
11005;DHT22;5555;59.622;16.556;2023-10-19T10:37:00;4.00;99.90
11005;DHT22;5555;59.622;16.556;2023-10-19T10:39:28;4.10;99.90
11005;DHT22;5555;59.622;16.556;2023-10-19T10:41:57;4.40;99.90
11005;DHT22;5555;59.622;16.556;2023-10-19T10:44:41;4.20;99.90
11005;DHT22;5555;59.622;16.556;2023-10-19T10:47:11;4.30;99.90
11005;DHT22;5555;59.622;16.556;2023-10-19T10:49:52;4.50;99.90
11005;DHT22;5555;59.622;16.556;2023-10-19T10:52:30;4.50;99.90
11005;DHT22;5555;59.622;16.556;2023-10-19T10:54:58;4.80;99.90
11005;DHT22;5555;59.622;16.556;2023-10-19T10:57:31;4.70;99.90
11005;DHT22;5555;59.622;16.556;2023-10-19T11:00:10;4.70;99.90
11005;DHT22;5555;59.622;16.556;2023-10-19T11:02:46;4.60;99.90
11005;DHT22;5555;59.622;16.556;2023-10-19T11:05:13;4.70;99.90
11005;DHT22;5555;59.622;16.556;2023-10-19T11:10:31;4.80;99.90
11005;DHT22;5555;59.622;16.556;2023-10-19T11:13:07;4.70;99.90
11005;DHT22;5555;59.622;16.556;2023-10-19T11:15:37;4.60;99.90
11005;DHT22;5555;59.622;16.556;2023-10-19T11:18:05;4.60;99.90
11005;DHT22;5555;59.622;16.556;2023-10-19T11:20:33;4.50;99.90
11005;DHT22;5555;59.622;16.556;2023-10-19T11:22:59;4.50;99.90
11005;DHT22;5555;59.622;16.556;2023-10-19T11:25:29;5.00;99.90
11005;DHT22;5555;59.622;16.556;2023-10-19T11:28:00;5.30;99.90
11005;DHT22;5555;59.622;16.556;2023-10-19T11:30:31;5.50;99.90
11005;DHT22;5555;59.622;16.556;2023-10-19T11:32:57;5.40;99.90
11005;DHT22;5555;59.622;16.556;2023-10-19T11:35:30;5.30;99.90
11005;DHT22;5555;59.622;16.556;2023-10-19T11:38:00;5.20;99.90
11005;DHT22;5555;59.622;16.556;2023-10-19T11:40:26;5.10;99.90
11005;DHT22;5555;59.622;16.556;2023-10-19T11:42:53;5.40;99.90
11005;DHT22;5555;59.622;16.556;2023-10-19T11:45:22;5.50;99.90
11005;DHT22;5555;59.622;16.556;2023-10-19T11:47:49;5.20;99.90
11005;DHT22;5555;59.622;16.556;2023-10-19T11:50:16;4.80;99.90
11005;DHT22;5555;59.622;16.556;2023-10-19T11:52:42;4.80;99.90
11005;DHT22;5555;59.622;16.556;2023-10-19T11:55:08;4.70;99.90
11005;DHT22;5555;59.622;16.556;2023-10-19T11:57:34;4.90;99.90
11005;DHT22;5555;59.622;16.556;2023-10-19T12:00:02;5.60;99.90
11005;DHT22;5555;59.622;16.556;2023-10-19T12:02:34;6.40;99.90
11005;DHT22;5555;59.622;16.556;2023-10-19T12:05:01;6.60;99.90
11005;DHT22;5555;59.622;16.556;2023-10-19T12:07:28;6.60;99.90
11005;DHT22;5555;59.622;16.556;2023-10-19T12:09:54;6.70;99.90
11005;DHT22;5555;59.622;16.556;2023-10-19T12:12:20;6.30;99.90
11005;DHT22;5555;59.622;16.556;2023-10-19T12:14:45;5.70;99.90
11005;DHT22;5555;59.622;16.556;2023-10-19T12:17:11;5.30;99.90
11005;DHT22;5555;59.622;16.556;2023-10-19T12:19:36;5.10;99.90
11005;DHT22;5555;59.622;16.556;2023-10-19T12:22:02;5.00;99.90
11005;DHT22;5555;59.622;16.556;2023-10-19T12:24:28;5.00;99.90
11005;DHT22;5555;59.622;16.556;2023-10-19T12:26:54;5.00;99.90
11005;DHT22;5555;59.622;16.556;2023-10-19T12:29:20;5.00;99.90
11005;DHT22;5555;59.622;16.556;2023-10-19T12:31:49;4.90;99.90
11005;DHT22;5555;59.622;16.556;2023-10-19T12:34:15;4.50;99.90
11005;DHT22;5555;59.622;16.556;2023-10-19T12:36:42;4.20;99.90
11005;DHT22;5555;59.622;16.556;2023-10-19T12:39:10;4.10;99.90
11005;DHT22;5555;59.622;16.556;2023-10-19T12:41:41;4.10;99.90
11005;DHT22;5555;59.622;16.556;2023-10-19T12:44:07;4.30;99.90
11005;DHT22;5555;59.622;16.556;2023-10-19T12:46:37;4.40;99.90
11005;DHT22;5555;59.622;16.556;2023-10-19T12:49:06;4.40;99.90
11005;DHT22;5555;59.622;16.556;2023-10-19T12:51:39;4.30;99.90
11005;DHT22;5555;59.622;16.556;2023-10-19T12:54:07;4.20;99.90
11005;DHT22;5555;59.622;16.556;2023-10-19T12:56:35;4.40;99.90
11005;DHT22;5555;59.622;16.556;2023-10-19T12:59:01;4.80;99.90
11005;DHT22;5555;59.622;16.556;2023-10-19T13:01:27;5.40;99.90
11005;DHT22;5555;59.622;16.556;2023-10-19T13:03:53;6.10;99.90
11005;DHT22;5555;59.622;16.556;2023-10-19T13:06:19;6.50;99.90
11005;DHT22;5555;59.622;16.556;2023-10-19T13:08:45;6.60;99.90
11005;DHT22;5555;59.622;16.556;2023-10-19T13:11:10;6.60;99.90
11005;DHT22;5555;59.622;16.556;2023-10-19T13:13:39;7.10;99.90
11005;DHT22;5555;59.622;16.556;2023-10-19T13:16:05;7.90;99.90
11005;DHT22;5555;59.622;16.556;2023-10-19T13:18:31;7.30;99.90
11005;DHT22;5555;59.622;16.556;2023-10-19T13:21:00;6.90;99.90
11005;DHT22;5555;59.622;16.556;2023-10-19T13:23:33;5.40;99.90
11005;DHT22;5555;59.622;16.556;2023-10-19T13:25:59;4.80;99.90
11005;DHT22;5555;59.622;16.556;2023-10-19T13:28:43;5.10;99.90
11005;DHT22;5555;59.622;16.556;2023-10-19T13:31:09;6.10;99.90
11005;DHT22;5555;59.622;16.556;2023-10-19T13:33:35;5.90;99.90
11005;DHT22;5555;59.622;16.556;2023-10-19T13:36:01;6.80;99.90
11005;DHT22;5555;59.622;16.556;2023-10-19T13:38:27;6.20;99.90
11005;DHT22;5555;59.622;16.556;2023-10-19T13:40:54;6.60;99.90
11005;DHT22;5555;59.622;16.556;2023-10-19T13:43:20;6.90;99.90
11005;DHT22;5555;59.622;16.556;2023-10-19T13:45:47;6.10;99.90
11005;DHT22;5555;59.622;16.556;2023-10-19T13:48:14;5.40;99.90
11005;DHT22;5555;59.622;16.556;2023-10-19T13:50:45;5.00;99.90
11005;DHT22;5555;59.622;16.556;2023-10-19T13:53:13;5.10;99.90
11005;DHT22;5555;59.622;16.556;2023-10-19T13:55:39;5.00;99.90
11005;DHT22;5555;59.622;16.556;2023-10-19T13:58:05;5.00;99.90
11005;DHT22;5555;59.622;16.556;2023-10-19T14:00:32;4.40;99.90
11005;DHT22;5555;59.622;16.556;2023-10-19T14:03:09;4.40;99.90
11005;DHT22;5555;59.622;16.556;2023-10-19T14:05:40;4.30;99.90
11005;DHT22;5555;59.622;16.556;2023-10-19T14:08:08;4.10;99.90
11005;DHT22;5555;59.622;16.556;2023-10-19T14:10:35;4.10;99.90
11005;DHT22;5555;59.622;16.556;2023-10-19T14:13:01;3.90;99.90
11005;DHT22;5555;59.622;16.556;2023-10-19T14:15:27;3.80;99.90
11005;DHT22;5555;59.622;16.556;2023-10-19T14:17:56;3.80;99.90
11005;DHT22;5555;59.622;16.556;2023-10-19T14:20:23;4.00;99.90
11005;DHT22;5555;59.622;16.556;2023-10-19T14:22:49;3.90;99.90
11005;DHT22;5555;59.622;16.556;2023-10-19T14:25:16;3.90;99.90
11005;DHT22;5555;59.622;16.556;2023-10-19T14:27:44;3.70;99.90
11005;DHT22;5555;59.622;16.556;2023-10-19T14:30:11;3.50;99.90
11005;DHT22;5555;59.622;16.556;2023-10-19T14:32:42;3.70;99.90
11005;DHT22;5555;59.622;16.556;2023-10-19T14:35:09;3.60;99.90
11005;DHT22;5555;59.622;16.556;2023-10-19T14:37:44;3.90;99.90
11005;DHT22;5555;59.622;16.556;2023-10-19T14:40:15;4.40;99.90
11005;DHT22;5555;59.622;16.556;2023-10-19T14:42:44;4.70;99.90
11005;DHT22;5555;59.622;16.556;2023-10-19T14:45:11;5.00;99.90
11005;DHT22;5555;59.622;16.556;2023-10-19T14:47:40;5.30;99.90
11005;DHT22;5555;59.622;16.556;2023-10-19T14:50:11;5.20;99.90
11005;DHT22;5555;59.622;16.556;2023-10-19T14:52:42;5.40;99.90
11005;DHT22;5555;59.622;16.556;2023-10-19T14:55:09;5.20;99.90
11005;DHT22;5555;59.622;16.556;2023-10-19T14:57:40;4.90;99.90
11005;DHT22;5555;59.622;16.556;2023-10-19T15:00:08;4.10;99.90
11005;DHT22;5555;59.622;16.556;2023-10-19T15:02:44;3.70;99.90
11005;DHT22;5555;59.622;16.556;2023-10-19T15:05:14;3.30;99.90
11005;DHT22;5555;59.622;16.556;2023-10-19T15:07:51;3.10;99.90
11005;DHT22;5555;59.622;16.556;2023-10-19T15:10:18;3.00;99.90
11005;DHT22;5555;59.622;16.556;2023-10-19T15:12:44;2.90;99.90
11005;DHT22;5555;59.622;16.556;2023-10-19T15:15:11;2.80;99.90
11005;DHT22;5555;59.622;16.556;2023-10-19T15:17:40;2.70;99.90
11005;DHT22;5555;59.622;16.556;2023-10-19T15:20:08;2.50;99.90
11005;DHT22;5555;59.622;16.556;2023-10-19T15:22:46;2.40;99.90
11005;DHT22;5555;59.622;16.556;2023-10-19T15:25:13;2.40;99.90
11005;DHT22;5555;59.622;16.556;2023-10-19T15:27:40;2.30;99.90
11005;DHT22;5555;59.622;16.556;2023-10-19T15:30:08;2.20;99.90
11005;DHT22;5555;59.622;16.556;2023-10-19T15:32:41;2.20;99.90
11005;DHT22;5555;59.622;16.556;2023-10-19T15:35:10;2.30;99.90
11005;DHT22;5555;59.622;16.556;2023-10-19T15:37:37;2.30;99.90
11005;DHT22;5555;59.622;16.556;2023-10-19T15:40:04;2.40;99.90
11005;DHT22;5555;59.622;16.556;2023-10-19T15:42:30;2.40;99.90
11005;DHT22;5555;59.622;16.556;2023-10-19T15:44:55;2.40;99.90
11005;DHT22;5555;59.622;16.556;2023-10-19T15:47:22;2.20;99.90
11005;DHT22;5555;59.622;16.556;2023-10-19T15:49:50;2.00;99.90
11005;DHT22;5555;59.622;16.556;2023-10-19T15:52:25;1.80;99.90
11005;DHT22;5555;59.622;16.556;2023-10-19T15:54:54;1.60;99.90
11005;DHT22;5555;59.622;16.556;2023-10-19T15:57:20;1.40;99.90
11005;DHT22;5555;59.622;16.556;2023-10-19T15:59:46;1.30;99.90
11005;DHT22;5555;59.622;16.556;2023-10-19T16:02:14;1.30;99.90